createdAt,value
2024-03-06T00:02:22.731Z,2.70
2024-03-06T00:04:49.622Z,2.88
2024-03-06T00:07:17.060Z,3.15
2024-03-06T00:09:44.273Z,3.35
2024-03-06T00:12:11.530Z,3.08
2024-03-06T00:14:38.310Z,3.10
2024-03-06T00:17:05.914Z,2.60
2024-03-06T00:19:33.080Z,2.40
2024-03-06T00:22:02.213Z,2.67
2024-03-06T00:24:29.167Z,2.45
2024-03-06T00:26:56.067Z,2.55
2024-03-06T00:29:22.854Z,2.70
2024-03-06T00:31:49.822Z,2.70
2024-03-06T00:34:16.863Z,2.30
2024-03-06T00:36:47.538Z,2.88
2024-03-06T00:39:17.110Z,3.00
2024-03-06T00:41:43.962Z,3.10
2024-03-06T00:44:10.934Z,3.70
2024-03-06T00:46:38.014Z,3.38
2024-03-06T00:49:04.852Z,3.45
2024-03-06T00:51:41.124Z,3.42
2024-03-06T00:54:11.493Z,3.50
2024-03-06T00:56:39.844Z,3.33
2024-03-06T00:59:06.921Z,2.70
2024-03-06T01:01:33.791Z,2.83
2024-03-06T01:04:00.821Z,3.13
2024-03-06T01:06:27.901Z,2.58
2024-03-06T01:08:55.654Z,2.78
2024-03-06T01:11:22.725Z,2.88
2024-03-06T01:13:50.140Z,2.83
2024-03-06T01:16:17.082Z,2.78
2024-03-06T01:18:43.827Z,2.80
2024-03-06T01:21:10.695Z,2.90
2024-03-06T01:23:37.476Z,3.65
2024-03-06T01:26:04.389Z,3.38
2024-03-06T01:28:31.318Z,3.55
2024-03-06T01:30:59.747Z,3.00
2024-03-06T01:33:26.598Z,3.67
2024-03-06T01:35:53.374Z,3.60
2024-03-06T01:38:20.222Z,3.88
2024-03-06T01:40:47.099Z,3.13
2024-03-06T01:43:25.943Z,3.45
2024-03-06T01:45:54.189Z,3.10
2024-03-06T01:48:28.174Z,3.10
2024-03-06T01:50:57.960Z,3.10
2024-03-06T01:53:28.195Z,2.85
2024-03-06T01:55:55.833Z,2.78
2024-03-06T01:58:23.853Z,3.15
2024-03-06T02:00:51.703Z,3.15
2024-03-06T02:03:20.722Z,3.03
2024-03-06T02:05:50.415Z,3.30
2024-03-06T02:08:17.496Z,2.60
2024-03-06T02:10:46.832Z,2.88
2024-03-06T02:13:15.225Z,3.10
2024-03-06T02:15:42.244Z,2.72
2024-03-06T02:18:10.304Z,2.83
2024-03-06T02:20:41.196Z,3.20
2024-03-06T02:23:08.717Z,3.60
2024-03-06T02:25:35.878Z,3.28
2024-03-06T02:28:02.719Z,3.33
2024-03-06T02:30:31.584Z,3.50
2024-03-06T02:32:58.737Z,3.50
2024-03-06T02:35:25.620Z,3.65
2024-03-06T02:37:52.566Z,2.92
2024-03-06T02:40:19.431Z,3.40
2024-03-06T02:42:46.186Z,3.03
2024-03-06T02:45:13.009Z,3.40
2024-03-06T02:47:40.138Z,4.80
2024-03-06T02:50:08.673Z,4.85
2024-03-06T02:52:35.603Z,4.18
2024-03-06T02:55:02.407Z,3.90
2024-03-06T02:57:29.723Z,4.10
2024-03-06T02:59:57.345Z,3.40
2024-03-06T03:02:24.923Z,3.30
2024-03-06T03:04:53.160Z,3.58
2024-03-06T03:07:22.941Z,3.30
2024-03-06T03:09:49.679Z,3.70
2024-03-06T03:12:16.548Z,3.35
2024-03-06T03:14:44.171Z,3.13
2024-03-06T03:17:11.211Z,3.60
2024-03-06T03:19:41.228Z,3.78
2024-03-06T03:22:09.123Z,3.40
2024-03-06T03:24:35.972Z,3.38
2024-03-06T03:27:02.749Z,3.40
2024-03-06T03:29:30.794Z,4.03
2024-03-06T03:31:57.680Z,3.70
2024-03-06T03:34:24.731Z,3.53
2024-03-06T03:36:51.551Z,3.55
2024-03-06T03:39:18.349Z,3.70
2024-03-06T03:41:49.847Z,3.40
2024-03-06T03:44:18.314Z,3.20
2024-03-06T03:46:45.436Z,3.28
2024-03-06T03:49:13.019Z,3.42
2024-03-06T03:51:40.536Z,4.07
2024-03-06T03:54:07.726Z,3.78
2024-03-06T03:56:34.749Z,3.60
2024-03-06T03:59:01.926Z,3.97
2024-03-06T04:01:29.021Z,3.50
2024-03-06T04:03:56.116Z,3.05
2024-03-06T04:06:22.979Z,3.72
2024-03-06T04:08:50.031Z,3.50
2024-03-06T04:11:17.370Z,3.55
2024-03-06T04:13:44.396Z,3.38
2024-03-06T04:16:11.391Z,3.35
2024-03-06T04:18:38.359Z,2.95
2024-03-06T04:21:08.779Z,2.80
2024-03-06T04:23:35.676Z,2.75
2024-03-06T04:26:02.787Z,2.92
2024-03-06T04:28:29.968Z,2.85
2024-03-06T04:30:56.934Z,3.10
2024-03-06T04:33:23.751Z,3.17
2024-03-06T04:35:50.790Z,2.63
2024-03-06T04:38:17.665Z,3.05
2024-03-06T04:40:44.688Z,2.88
2024-03-06T04:43:11.936Z,2.75
2024-03-06T04:45:38.744Z,3.33
2024-03-06T04:48:06.589Z,3.10
2024-03-06T04:50:33.865Z,3.10
2024-03-06T04:53:00.693Z,3.25
2024-03-06T04:55:28.047Z,2.92
2024-03-06T04:57:55.167Z,3.13
2024-03-06T05:00:22.444Z,3.70
2024-03-06T06:00:25.093Z,3.95
2024-03-06T06:02:51.923Z,4.15
2024-03-06T06:05:23.522Z,4.13
2024-03-06T06:07:51.783Z,3.88
2024-03-06T06:10:21.685Z,4.18
2024-03-06T06:12:49.913Z,3.78
2024-03-06T06:15:16.873Z,3.75
2024-03-06T06:17:45.728Z,3.90
2024-03-06T06:20:16.621Z,4.15
2024-03-06T06:22:44.102Z,4.40
2024-03-06T06:25:11.309Z,4.00
2024-03-06T06:27:39.271Z,3.83
2024-03-06T06:30:08.063Z,4.25
2024-03-06T06:32:36.202Z,3.83
2024-03-06T06:35:03.308Z,4.05
2024-03-06T06:37:30.161Z,3.80
2024-03-06T06:39:57.002Z,3.92
2024-03-06T06:42:23.789Z,3.97
2024-03-06T06:44:50.523Z,3.67
2024-03-06T06:47:18.204Z,4.25
2024-03-06T06:49:45.798Z,3.88
2024-03-06T06:52:12.544Z,4.30
2024-03-06T06:54:39.640Z,3.40
2024-03-06T06:57:06.422Z,3.85
2024-03-06T06:59:33.371Z,3.65
2024-03-06T07:02:00.499Z,4.10
2024-03-06T07:04:27.588Z,3.97
2024-03-06T07:06:54.419Z,4.00
2024-03-06T07:09:21.227Z,3.95
2024-03-06T07:11:48.075Z,3.60
2024-03-06T07:14:15.078Z,3.35
2024-03-06T07:16:46.184Z,3.20
2024-03-06T07:19:13.234Z,3.17
2024-03-06T07:21:40.394Z,3.50
2024-03-06T07:24:07.266Z,3.70
2024-03-06T07:26:35.445Z,4.00
2024-03-06T07:29:03.068Z,3.72
2024-03-06T07:31:30.146Z,3.60
2024-03-06T07:33:56.900Z,3.40
2024-03-06T07:36:23.688Z,4.40
2024-03-06T07:38:50.493Z,5.13
2024-03-06T07:41:17.430Z,5.18
2024-03-06T07:43:44.676Z,5.72
2024-03-06T07:46:12.311Z,3.65
2024-03-06T07:48:40.025Z,3.55
2024-03-06T07:51:08.282Z,4.00
2024-03-06T07:53:35.247Z,3.30
2024-03-06T07:56:02.497Z,4.80
2024-03-06T07:58:29.634Z,4.82
2024-03-06T08:00:57.679Z,6.88
2024-03-06T08:03:25.662Z,6.65
2024-03-06T08:05:54.272Z,5.32
2024-03-06T08:08:22.142Z,4.30
2024-03-06T08:10:49.521Z,2.95
2024-03-06T08:13:16.986Z,4.63
2024-03-06T08:15:45.323Z,5.10
2024-03-06T08:18:12.632Z,4.07
2024-03-06T08:20:40.160Z,3.13
2024-03-06T08:23:08.277Z,4.03
2024-03-06T08:25:35.133Z,3.50
2024-03-06T08:28:01.911Z,4.35
2024-03-06T08:30:28.697Z,3.80
2024-03-06T08:32:55.640Z,4.10
2024-03-06T08:35:24.855Z,4.32
2024-03-06T08:37:52.178Z,3.90
2024-03-06T08:40:19.152Z,3.40
2024-03-06T08:42:48.281Z,3.58
2024-03-06T08:45:17.954Z,3.95
2024-03-06T08:47:45.788Z,3.30
2024-03-06T08:50:13.730Z,3.40
2024-03-06T08:52:42.232Z,3.33
2024-03-06T08:55:09.791Z,2.97
2024-03-06T08:57:37.592Z,3.40
2024-03-06T09:00:05.825Z,3.67
2024-03-06T09:02:32.743Z,3.35
2024-03-06T09:04:59.621Z,3.03
2024-03-06T09:07:26.898Z,3.15
2024-03-06T09:09:53.684Z,3.30
2024-03-06T09:12:20.429Z,3.00
2024-03-06T09:14:47.335Z,3.20
2024-03-06T09:17:15.704Z,3.22
2024-03-06T09:19:51.612Z,3.35
2024-03-06T09:22:26.825Z,2.92
2024-03-06T09:24:53.570Z,3.20
2024-03-06T09:27:20.526Z,3.70
2024-03-06T09:29:48.584Z,4.15
2024-03-06T09:32:19.586Z,3.90
2024-03-06T09:34:46.861Z,3.92
2024-03-06T09:37:13.647Z,4.28
2024-03-06T09:39:40.385Z,4.60
2024-03-06T09:42:07.796Z,4.65
2024-03-06T09:44:35.528Z,3.90
2024-03-06T09:47:05.432Z,4.70
2024-03-06T09:49:32.512Z,4.35
2024-03-06T09:52:00.432Z,6.32
2024-03-06T09:54:28.056Z,5.07
2024-03-06T09:56:56.876Z,5.30
2024-03-06T09:59:23.807Z,4.90
2024-03-06T10:01:58.618Z,5.28
2024-03-06T10:04:29.826Z,5.32
2024-03-06T10:06:58.735Z,5.35
2024-03-06T10:09:26.807Z,5.15
2024-03-06T10:11:55.274Z,5.68
2024-03-06T10:14:22.323Z,5.40
2024-03-06T10:16:53.514Z,6.03
2024-03-06T10:19:20.884Z,6.43
2024-03-06T10:21:54.526Z,5.75
2024-03-06T10:24:26.023Z,6.07
2024-03-06T10:26:57.924Z,6.28
2024-03-06T10:29:26.427Z,5.95
2024-03-06T10:31:55.837Z,6.40
2024-03-06T10:34:27.154Z,6.47
2024-03-06T10:36:59.028Z,6.72
2024-03-06T10:39:26.394Z,6.28
2024-03-06T10:41:57.998Z,7.38
2024-03-06T10:44:28.364Z,7.53
2024-03-06T10:47:07.239Z,6.97
2024-03-06T10:49:35.673Z,7.10
2024-03-06T10:52:09.226Z,7.70
2024-03-06T10:54:38.104Z,8.52
2024-03-06T10:57:05.479Z,9.10
2024-03-06T10:59:32.588Z,9.50
2024-03-06T11:02:03.965Z,8.98
2024-03-06T11:04:35.480Z,9.15
2024-03-06T11:07:04.302Z,10.20
2024-03-06T11:09:41.351Z,10.02
2024-03-06T11:12:08.959Z,11.25
2024-03-06T11:14:40.884Z,11.80
2024-03-06T11:17:10.700Z,11.00
2024-03-06T11:20:07.334Z,11.80
2024-03-06T11:22:59.797Z,11.80
2024-03-06T11:25:52.389Z,12.00
2024-03-06T11:28:21.231Z,12.50
2024-03-06T11:30:51.324Z,13.43
2024-03-06T11:33:18.595Z,12.57
2024-03-06T11:36:13.891Z,13.68
2024-03-06T11:38:41.159Z,13.73
2024-03-06T11:41:08.649Z,13.75
2024-03-06T11:43:43.919Z,15.32
2024-03-06T11:46:11.872Z,15.55
2024-03-06T11:48:39.472Z,16.83
2024-03-06T11:51:06.713Z,16.92
2024-03-06T11:53:38.327Z,16.00
2024-03-06T11:56:10.987Z,17.95
2024-03-06T11:58:37.913Z,23.27
2024-03-06T12:01:05.638Z,19.95
2024-03-06T12:03:32.665Z,15.25
2024-03-06T12:06:00.104Z,18.40
2024-03-06T12:08:26.987Z,17.98
2024-03-06T12:10:56.515Z,15.98
2024-03-06T12:13:23.757Z,15.80
2024-03-06T12:15:50.649Z,16.10
2024-03-06T12:18:20.582Z,15.77
2024-03-06T12:20:47.578Z,18.27
2024-03-06T12:23:27.035Z,19.30
2024-03-06T12:28:32.188Z,17.42
2024-03-06T12:31:02.709Z,17.35
2024-03-06T12:33:29.696Z,17.48
2024-03-06T12:36:05.077Z,17.02
2024-03-06T12:38:32.154Z,16.02
2024-03-06T12:41:00.528Z,16.88
2024-03-06T12:43:27.820Z,15.98
2024-03-06T12:45:55.569Z,15.77
2024-03-06T12:48:26.956Z,15.82
2024-03-06T12:50:55.561Z,15.00
2024-03-06T12:53:23.295Z,15.27
2024-03-06T12:55:50.256Z,14.07
2024-03-06T12:58:17.244Z,15.55
2024-03-06T13:00:44.815Z,14.88
2024-03-06T13:03:11.669Z,15.65
2024-03-06T13:05:38.531Z,14.40
2024-03-06T13:08:05.819Z,14.25
2024-03-06T13:10:33.049Z,14.98
2024-03-06T13:12:59.858Z,15.15
2024-03-06T13:15:27.622Z,14.10
2024-03-06T13:17:54.522Z,14.70
2024-03-06T13:20:21.426Z,13.63
2024-03-06T13:22:48.279Z,14.57
2024-03-06T13:25:15.100Z,13.90
2024-03-06T13:27:42.001Z,13.68
2024-03-06T13:30:09.425Z,13.77
2024-03-06T13:32:36.710Z,14.50
2024-03-06T13:35:03.814Z,14.35
2024-03-06T13:37:30.838Z,13.23
2024-03-06T13:40:01.691Z,15.10
2024-03-06T13:42:29.251Z,13.25
2024-03-06T13:44:57.094Z,13.40
2024-03-06T13:47:24.466Z,14.30
2024-03-06T13:49:51.422Z,14.75
2024-03-06T13:52:21.390Z,14.13
2024-03-06T13:54:52.765Z,14.40
2024-03-06T13:57:19.673Z,14.27
2024-03-06T13:59:47.437Z,13.43
2024-03-06T14:02:14.351Z,14.27
2024-03-06T14:04:41.257Z,15.00
2024-03-06T14:07:08.559Z,14.23
2024-03-06T14:09:35.478Z,13.98
2024-03-06T14:12:03.083Z,14.30
2024-03-06T14:14:30.195Z,14.13
2024-03-06T14:16:57.797Z,14.18
2024-03-06T14:19:24.866Z,14.68
2024-03-06T14:21:52.669Z,13.77
2024-03-06T14:24:21.560Z,14.63
2024-03-06T14:26:50.033Z,13.25
2024-03-06T14:29:16.996Z,14.30
2024-03-06T14:31:44.331Z,13.70
2024-03-06T14:34:11.597Z,14.02
2024-03-06T14:36:38.523Z,14.30
2024-03-06T14:39:05.523Z,13.98
2024-03-06T14:41:33.450Z,15.15
2024-03-06T14:44:00.401Z,15.15
2024-03-06T14:46:27.297Z,14.60
2024-03-06T14:48:54.520Z,15.15
2024-03-06T14:51:21.503Z,14.88
2024-03-06T14:53:48.498Z,14.88
2024-03-06T14:56:15.558Z,15.80
2024-03-06T14:58:42.451Z,15.30
2024-03-06T15:01:09.247Z,15.60
2024-03-06T15:03:36.149Z,14.68
2024-03-06T15:06:03.912Z,14.88
2024-03-06T15:08:30.781Z,13.55
2024-03-06T15:10:58.705Z,14.85
2024-03-06T15:13:26.584Z,14.05
2024-03-06T15:15:53.820Z,13.93
2024-03-06T15:18:20.789Z,14.15
2024-03-06T15:20:47.903Z,13.07
2024-03-06T15:23:16.378Z,13.82
2024-03-06T15:25:44.963Z,13.95
2024-03-06T15:28:14.472Z,13.18
2024-03-06T15:30:41.394Z,14.25
2024-03-06T15:33:08.899Z,12.32
2024-03-06T15:35:36.130Z,12.88
2024-03-06T15:38:03.685Z,12.95
2024-03-06T15:40:30.572Z,13.63
2024-03-06T15:42:57.913Z,13.48
2024-03-06T15:45:24.799Z,14.15
2024-03-06T15:47:52.035Z,13.07
2024-03-06T15:50:19.049Z,13.43
2024-03-06T15:52:45.960Z,13.60
2024-03-06T15:55:12.909Z,14.30
2024-03-06T15:57:40.515Z,14.25
2024-03-06T16:00:14.651Z,14.82
2024-03-06T16:02:42.596Z,14.48
2024-03-06T16:05:09.959Z,16.33
2024-03-06T16:07:42.156Z,14.75
2024-03-06T16:10:12.129Z,14.48
2024-03-06T16:12:39.068Z,15.02
2024-03-06T16:15:07.226Z,15.35
2024-03-06T16:17:35.918Z,15.63
2024-03-06T16:20:06.157Z,16.45
2024-03-06T16:22:33.422Z,17.30
2024-03-06T16:25:00.290Z,16.60
2024-03-06T16:27:27.128Z,16.65
2024-03-06T16:29:55.876Z,17.35
2024-03-06T16:32:22.760Z,17.77
2024-03-06T16:34:49.632Z,17.98
2024-03-06T16:37:16.509Z,18.75
2024-03-06T16:39:46.315Z,17.58
2024-03-06T16:42:13.649Z,19.05
2024-03-06T16:44:43.539Z,18.10
2024-03-06T16:47:10.505Z,18.17
2024-03-06T16:49:37.841Z,19.02
2024-03-06T16:52:05.029Z,18.08
2024-03-06T16:54:33.150Z,18.92
2024-03-06T16:57:00.369Z,19.90
2024-03-06T16:59:30.452Z,18.60
2024-03-06T17:01:57.615Z,18.40
2024-03-06T17:04:24.482Z,19.98
2024-03-06T17:06:52.216Z,20.70
2024-03-06T17:09:19.081Z,21.02
2024-03-06T17:11:46.815Z,21.98
2024-03-06T17:14:13.930Z,20.08
2024-03-06T17:16:40.818Z,21.80
2024-03-06T17:19:07.623Z,21.13
2024-03-06T17:21:38.250Z,21.60
2024-03-06T17:24:06.102Z,21.42
2024-03-06T17:26:38.543Z,21.75
2024-03-06T17:29:06.176Z,22.90
2024-03-06T17:31:33.452Z,22.50
2024-03-06T17:34:01.255Z,22.00
2024-03-06T17:36:28.382Z,22.58
2024-03-06T17:38:55.530Z,22.80
2024-03-06T17:41:24.550Z,22.52
2024-03-06T17:43:51.335Z,23.17
2024-03-06T17:46:18.181Z,22.85
2024-03-06T17:48:45.077Z,22.70
2024-03-06T17:51:12.008Z,23.35
2024-03-06T17:53:38.846Z,23.90
2024-03-06T17:56:06.200Z,23.05
2024-03-06T17:58:33.087Z,24.85
2024-03-06T18:01:01.155Z,24.45
2024-03-06T18:03:28.123Z,24.45
2024-03-06T18:05:55.049Z,25.40
2024-03-06T18:08:22.015Z,25.90
2024-03-06T18:10:48.868Z,26.23
2024-03-06T18:13:15.793Z,26.42
2024-03-06T18:15:42.642Z,24.52
2024-03-06T18:18:09.625Z,25.27
2024-03-06T18:20:36.541Z,29.90
2024-03-06T18:23:05.669Z,27.92
2024-03-06T18:25:32.699Z,28.08
2024-03-06T18:27:59.544Z,25.67
2024-03-06T18:30:28.730Z,27.13
2024-03-06T18:32:55.838Z,27.30
2024-03-06T18:35:22.834Z,25.65
2024-03-06T18:37:50.925Z,25.95
2024-03-06T18:40:17.972Z,26.13
2024-03-06T18:42:44.816Z,26.88
2024-03-06T18:45:11.899Z,26.67
2024-03-06T18:47:39.073Z,27.80
2024-03-06T18:50:06.676Z,27.10
2024-03-06T18:52:35.022Z,26.25
2024-03-06T18:55:01.837Z,28.08
2024-03-06T18:57:29.041Z,28.45
2024-03-06T18:59:56.176Z,27.25
2024-03-06T19:02:25.309Z,26.63
2024-03-06T19:04:53.544Z,26.05
2024-03-06T19:07:23.620Z,26.40
2024-03-06T19:09:50.637Z,27.23
2024-03-06T19:12:17.870Z,25.27
2024-03-06T19:14:45.596Z,25.80
2024-03-06T19:17:13.313Z,26.33
2024-03-06T19:19:40.226Z,26.23
2024-03-06T19:22:10.644Z,25.98
2024-03-06T19:24:40.916Z,27.20
2024-03-06T19:27:07.772Z,27.30
2024-03-06T19:29:34.733Z,27.40
2024-03-06T19:32:02.111Z,27.23
2024-03-06T19:34:29.517Z,29.63
2024-03-06T19:37:00.747Z,27.83
2024-03-06T19:39:27.580Z,28.70
2024-03-06T19:41:54.601Z,29.58
2024-03-06T19:44:22.313Z,29.17
2024-03-06T19:46:49.477Z,29.98
2024-03-06T19:49:16.288Z,33.50
2024-03-06T19:51:44.040Z,35.72
2024-03-06T19:54:10.802Z,32.00
2024-03-06T19:56:37.750Z,32.03
2024-03-06T19:59:05.252Z,32.45
2024-03-06T20:01:32.637Z,29.90
2024-03-06T20:04:00.910Z,29.67
2024-03-06T20:06:31.610Z,30.50
2024-03-06T20:08:59.429Z,29.33
2024-03-06T20:11:27.399Z,28.13
2024-03-06T20:13:54.769Z,28.42
2024-03-06T20:16:21.692Z,27.70
2024-03-06T20:18:51.026Z,28.20
2024-03-06T20:21:17.866Z,29.15
2024-03-06T20:23:44.707Z,28.30
2024-03-06T20:26:12.389Z,29.65
2024-03-06T20:28:39.262Z,28.20
2024-03-06T20:31:06.252Z,29.88
2024-03-06T20:33:33.132Z,29.10
2024-03-06T20:35:59.973Z,29.85
2024-03-06T20:38:26.984Z,28.90
2024-03-06T20:40:53.813Z,28.00
2024-03-06T20:43:22.613Z,29.25
2024-03-06T20:45:51.618Z,27.42
2024-03-06T20:48:18.999Z,28.83
2024-03-06T20:50:45.929Z,28.15
2024-03-06T20:53:12.931Z,28.25
2024-03-06T20:55:39.908Z,29.40
2024-03-06T20:58:07.258Z,30.08
2024-03-06T21:00:34.054Z,30.30
2024-03-06T21:03:00.928Z,30.30
2024-03-06T21:05:27.782Z,31.42
2024-03-06T21:07:54.593Z,30.30
2024-03-06T21:10:21.458Z,31.75
2024-03-06T21:12:49.919Z,29.02
2024-03-06T21:15:17.436Z,28.17
2024-03-06T21:17:44.800Z,29.70
2024-03-06T21:20:12.677Z,29.48
2024-03-06T21:22:40.769Z,28.00
2024-03-06T21:25:12.375Z,28.83
2024-03-06T21:27:41.528Z,28.23
2024-03-06T21:30:09.854Z,28.13
2024-03-06T21:32:37.645Z,27.63
2024-03-06T21:35:05.280Z,28.00
2024-03-06T21:37:33.240Z,27.00
2024-03-06T21:40:46.823Z,26.55
2024-03-06T21:43:13.646Z,29.23
2024-03-06T21:45:49.268Z,26.70
2024-03-06T21:48:30.063Z,26.48
2024-03-06T21:51:08.140Z,27.83
2024-03-06T21:53:37.248Z,28.83
2024-03-06T21:56:10.962Z,28.38
2024-03-06T21:58:40.872Z,28.27
2024-03-06T22:01:16.724Z,27.50
2024-03-06T22:03:43.613Z,28.67
2024-03-06T22:06:13.204Z,28.58
2024-03-06T22:08:42.337Z,27.70
2024-03-06T22:11:15.770Z,27.10
2024-03-06T22:13:51.479Z,28.35
2024-03-06T22:16:23.834Z,29.27
2024-03-06T22:19:05.374Z,28.55
2024-03-06T22:21:41.594Z,28.10
2024-03-06T22:24:26.130Z,28.80
2024-03-06T22:27:00.673Z,28.75
2024-03-06T22:29:33.718Z,26.42
2024-03-06T22:32:04.700Z,27.45
2024-03-06T22:34:34.921Z,28.33
2024-03-06T22:37:11.176Z,26.92
2024-03-06T22:39:49.156Z,27.15
2024-03-06T22:42:20.625Z,26.60
2024-03-06T22:45:08.369Z,28.05
2024-03-06T22:47:36.690Z,26.52
2024-03-06T22:50:11.727Z,27.33
2024-03-06T22:52:41.236Z,27.80
2024-03-06T22:55:08.633Z,26.55
2024-03-06T22:57:52.682Z,26.92
2024-03-06T23:00:32.789Z,27.67
2024-03-06T23:03:01.575Z,27.98
2024-03-06T23:05:31.459Z,27.35
2024-03-06T23:08:03.797Z,27.23
2024-03-06T23:10:43.344Z,27.67
2024-03-06T23:13:17.165Z,27.60
2024-03-06T23:16:02.011Z,27.60
2024-03-06T23:18:33.987Z,26.70
2024-03-06T23:21:03.227Z,29.02
2024-03-06T23:23:38.474Z,27.80
2024-03-06T23:26:23.264Z,27.40
2024-03-06T23:28:50.131Z,26.73
2024-03-06T23:31:26.297Z,27.42
2024-03-06T23:34:12.193Z,27.55
2024-03-06T23:36:44.317Z,25.73
2024-03-06T23:39:14.825Z,26.23
2024-03-06T23:41:43.741Z,25.38
2024-03-06T23:44:19.293Z,25.80
2024-03-06T23:46:49.977Z,25.92
2024-03-06T23:49:28.319Z,24.92
2024-03-06T23:51:58.926Z,26.73
2024-03-06T23:54:44.689Z,25.73
2024-03-06T23:57:36.932Z,26.60
